Bookmark and Share
Track history (hours):
 

Pied Piper

More information available from US FCC via Universal Licensing System and Coast Guard Vessel Documentation Center.

Last reported at 2013-Sep-03 00:06 UTC. Time now 2014-Apr-20 03:16 UTC.
Position N 41°33' W 070°36'.
Warning: this ship's position is months out of date.

Length 24 m; draft 2 m.

Type: Passenger vessel. MMSI: 366962380.

NotesDate/timePositionNaut miles runAvg speedWind from/ knotsBaromVisibWave heightAir tempDewpointWater temp
2013-Sep-03 00:06N 41°33' W 070°36'814.1
2013-Sep-02 23:33N 41°26' W 070°30'1 0.7
2013-Sep-02 22:33N 41°26' W 070°29'2 0.2
2013-Sep-02 15:27N 41°25' W 070°29'7 5.9
2013-Sep-02 14:12N 41°31' W 070°35'2 0.2
2013-Sep-02 00:15N 41°33' W 070°36'912.5
2013-Sep-01 23:33N 41°26' W 070°30'2 1.5
2013-Sep-01 22:29N 41°27' W 070°31'7 5.3
2013-Sep-01 21:10N 41°33' W 070°36'812.9
2013-Sep-01 20:32N 41°26' W 070°30'8 5.6
2013-Sep-01 19:06N 41°32' W 070°36'1 2.0
2013-Sep-01 18:31N 41°31' W 070°35'1 0.1
2013-Aug-31 22:07N 41°32' W 070°36'814.3
2013-Aug-31 21:33N 41°26' W 070°29'2 2.0
2013-Aug-31 20:29N 41°27' W 070°32'6 5.8
2013-Aug-31 19:32N 41°32' W 070°36'9 9.4
2013-Aug-31 18:32N 41°23' W 070°31'10 7.5
2013-Aug-31 17:09N 41°33' W 070°36'813.8
2013-Aug-31 16:33N 41°26' W 070°30'2 2.0
2013-Aug-31 15:33N 41°28' W 070°32'5 5.0
2013-Aug-31 14:32N 41°32' W 070°35'1 0.0
2013-Aug-30 19:32N 41°32' W 070°36'8 5.9
2013-Aug-30 18:10N 41°26' W 070°29'5 0.2
2013-Aug-29 19:20N 41°30' W 070°34'1 0.3
2013-Aug-29 14:24N 41°31' W 070°35'0 0.0
2013-Aug-28 19:25N 41°31' W 070°35'8 7.9
2013-Aug-28 18:24N 41°23' W 070°31'1012.2
2013-Aug-28 17:33N 41°33' W 070°36'8 8.1
2013-Aug-28 16:33N 41°26' W 070°30'8 3.9
2013-Aug-28 14:33N 41°32' W 070°36'10 8.7
2013-Aug-28 13:24N 41°23' W 070°30'1011.8
2013-Aug-28 12:31N 41°33' W 070°36'  
2013-Aug-24 00:28N 41°25' W 070°29'  

Dump ship's entire track history

sailing weather and tide predictions

Pied Piper — WDB8661 — position and weather